Boone, Nebraska
Current Conditions -  °F | °C
As of 7:35 AM on Thursday 30 Oct 2014 (Local Time) from KBVN Reporting Station
Clear Clear  
Wind Chill: 37°   Ceiling: Unl
Heat Index: 42°   Visibility: 10mi
Dew Point: 32°   Wind: 9mph
Humidity: 68%   Direction: 320°NW
Pressure: 30.08"   Gusts: NA
Location:  41.747°N, 98.0152°W
Report Text: KBVN 301235Z AUTO 32008KT 10SM CLR 06/00 A3008 RMK AO2 T00560001
Loading
Personal Weather Stations






























Interactive Weather Map
Tropical Storm Tracking
New forecast layout! Learn more

10-Day Weather Forecast

Advertisements
Track Severe Weather on mobile